sensor_id;sensor_type;location;lat;lon;timestamp;P1;durP1;ratioP1;P2;durP2;ratioP2
19560;SDS011;9927;47.792;10.616;2022-10-16T03:02:48;8.90;;;3.80;;
19560;SDS011;9927;47.792;10.616;2022-10-16T03:05:15;6.30;;;3.60;;
19560;SDS011;9927;47.792;10.616;2022-10-16T03:07:43;14.35;;;4.95;;
19560;SDS011;9927;47.792;10.616;2022-10-16T03:10:10;11.30;;;4.00;;
19560;SDS011;9927;47.792;10.616;2022-10-16T03:12:37;10.48;;;4.15;;
19560;SDS011;9927;47.792;10.616;2022-10-16T03:15:04;3.88;;;3.58;;
19560;SDS011;9927;47.792;10.616;2022-10-16T03:17:33;3.80;;;3.60;;
19560;SDS011;9927;47.792;10.616;2022-10-16T03:20:01;3.25;;;3.13;;
19560;SDS011;9927;47.792;10.616;2022-10-16T03:22:28;3.13;;;3.03;;
19560;SDS011;9927;47.792;10.616;2022-10-16T03:24:56;3.38;;;3.17;;
19560;SDS011;9927;47.792;10.616;2022-10-16T03:27:23;2.75;;;2.65;;
19560;SDS011;9927;47.792;10.616;2022-10-16T03:29:50;3.05;;;2.95;;
19560;SDS011;9927;47.792;10.616;2022-10-16T03:32:18;3.40;;;3.10;;
19560;SDS011;9927;47.792;10.616;2022-10-16T03:34:46;2.95;;;2.85;;
19560;SDS011;9927;47.792;10.616;2022-10-16T03:37:13;3.20;;;3.10;;
19560;SDS011;9927;47.792;10.616;2022-10-16T03:39:40;3.10;;;3.00;;
19560;SDS011;9927;47.792;10.616;2022-10-16T03:42:08;2.85;;;2.75;;
19560;SDS011;9927;47.792;10.616;2022-10-16T03:44:35;3.30;;;3.10;;
19560;SDS011;9927;47.792;10.616;2022-10-16T03:47:02;3.40;;;3.08;;
19560;SDS011;9927;47.792;10.616;2022-10-16T03:49:29;3.80;;;3.50;;
19560;SDS011;9927;47.792;10.616;2022-10-16T03:51:56;3.80;;;3.53;;
19560;SDS011;9927;47.792;10.616;2022-10-16T03:54:23;3.55;;;3.35;;
19560;SDS011;9927;47.792;10.616;2022-10-16T03:56:50;3.35;;;3.15;;
19560;SDS011;9927;47.792;10.616;2022-10-16T03:59:18;3.55;;;3.20;;
19560;SDS011;9927;47.792;10.616;2022-10-16T04:01:45;3.30;;;3.10;;
19560;SDS011;9927;47.792;10.616;2022-10-16T04:04:12;3.22;;;3.05;;
19560;SDS011;9927;47.792;10.616;2022-10-16T04:06:39;3.65;;;3.45;;
19560;SDS011;9927;47.792;10.616;2022-10-16T04:09:06;3.35;;;3.10;;
19560;SDS011;9927;47.792;10.616;2022-10-16T04:11:33;3.10;;;3.00;;
19560;SDS011;9927;47.792;10.616;2022-10-16T04:14:00;3.35;;;3.25;;
19560;SDS011;9927;47.792;10.616;2022-10-16T04:16:28;3.15;;;3.05;;
19560;SDS011;9927;47.792;10.616;2022-10-16T04:18:55;3.40;;;3.20;;
19560;SDS011;9927;47.792;10.616;2022-10-16T04:21:22;3.15;;;3.00;;
19560;SDS011;9927;47.792;10.616;2022-10-16T04:23:49;3.25;;;3.15;;
19560;SDS011;9927;47.792;10.616;2022-10-16T04:26:16;3.00;;;2.90;;
19560;SDS011;9927;47.792;10.616;2022-10-16T04:28:43;3.00;;;2.90;;
19560;SDS011;9927;47.792;10.616;2022-10-16T04:31:10;3.10;;;3.00;;
19560;SDS011;9927;47.792;10.616;2022-10-16T04:33:38;3.60;;;3.30;;
19560;SDS011;9927;47.792;10.616;2022-10-16T04:36:05;3.00;;;2.80;;
19560;SDS011;9927;47.792;10.616;2022-10-16T04:38:32;2.80;;;2.80;;
19560;SDS011;9927;47.792;10.616;2022-10-16T04:40:59;2.90;;;2.80;;
19560;SDS011;9927;47.792;10.616;2022-10-16T04:43:27;3.25;;;3.15;;
19560;SDS011;9927;47.792;10.616;2022-10-16T04:45:59;3.17;;;3.08;;
19560;SDS011;9927;47.792;10.616;2022-10-16T04:48:27;4.25;;;3.60;;
19560;SDS011;9927;47.792;10.616;2022-10-16T04:50:54;3.13;;;3.03;;
19560;SDS011;9927;47.792;10.616;2022-10-16T04:53:21;5.57;;;3.78;;
19560;SDS011;9927;47.792;10.616;2022-10-16T04:55:49;3.28;;;3.08;;
19560;SDS011;9927;47.792;10.616;2022-10-16T04:58:16;3.40;;;3.17;;
19560;SDS011;9927;47.792;10.616;2022-10-16T05:00:44;4.07;;;3.10;;
19560;SDS011;9927;47.792;10.616;2022-10-16T05:03:12;3.95;;;3.47;;
19560;SDS011;9927;47.792;10.616;2022-10-16T05:05:43;2.97;;;2.78;;
19560;SDS011;9927;47.792;10.616;2022-10-16T05:08:12;3.70;;;3.40;;
19560;SDS011;9927;47.792;10.616;2022-10-16T05:10:43;3.40;;;3.15;;
19560;SDS011;9927;47.792;10.616;2022-10-16T05:13:11;6.82;;;3.63;;
19560;SDS011;9927;47.792;10.616;2022-10-16T05:15:39;3.67;;;3.10;;
19560;SDS011;9927;47.792;10.616;2022-10-16T05:18:06;4.57;;;3.50;;
19560;SDS011;9927;47.792;10.616;2022-10-16T05:20:33;3.22;;;3.03;;
19560;SDS011;9927;47.792;10.616;2022-10-16T05:23:00;3.15;;;2.65;;
19560;SDS011;9927;47.792;10.616;2022-10-16T05:25:28;3.50;;;3.30;;
19560;SDS011;9927;47.792;10.616;2022-10-16T05:27:55;4.85;;;3.78;;
19560;SDS011;9927;47.792;10.616;2022-10-16T05:30:22;3.50;;;3.30;;
19560;SDS011;9927;47.792;10.616;2022-10-16T05:32:49;3.83;;;3.47;;
19560;SDS011;9927;47.792;10.616;2022-10-16T05:35:17;3.67;;;3.40;;
19560;SDS011;9927;47.792;10.616;2022-10-16T05:37:46;3.90;;;3.60;;
19560;SDS011;9927;47.792;10.616;2022-10-16T05:40:13;4.07;;;3.75;;
19560;SDS011;9927;47.792;10.616;2022-10-16T05:42:42;4.15;;;3.85;;
19560;SDS011;9927;47.792;10.616;2022-10-16T05:45:10;4.30;;;4.00;;
19560;SDS011;9927;47.792;10.616;2022-10-16T05:47:38;3.38;;;3.17;;
19560;SDS011;9927;47.792;10.616;2022-10-16T05:50:06;3.78;;;3.58;;
19560;SDS011;9927;47.792;10.616;2022-10-16T05:52:33;4.00;;;3.60;;
19560;SDS011;9927;47.792;10.616;2022-10-16T05:55:01;3.28;;;3.17;;
19560;SDS011;9927;47.792;10.616;2022-10-16T05:57:28;3.40;;;3.30;;
19560;SDS011;9927;47.792;10.616;2022-10-16T05:59:56;3.80;;;3.50;;
19560;SDS011;9927;47.792;10.616;2022-10-16T06:02:23;3.05;;;2.85;;
19560;SDS011;9927;47.792;10.616;2022-10-16T06:04:53;3.55;;;3.35;;
19560;SDS011;9927;47.792;10.616;2022-10-16T06:07:20;5.32;;;4.82;;
19560;SDS011;9927;47.792;10.616;2022-10-16T06:09:49;4.50;;;4.20;;
19560;SDS011;9927;47.792;10.616;2022-10-16T06:12:17;4.45;;;4.10;;
19560;SDS011;9927;47.792;10.616;2022-10-16T06:14:44;4.05;;;3.85;;
19560;SDS011;9927;47.792;10.616;2022-10-16T06:17:13;4.38;;;4.07;;
19560;SDS011;9927;47.792;10.616;2022-10-16T06:19:41;4.03;;;3.72;;
19560;SDS011;9927;47.792;10.616;2022-10-16T06:22:08;4.05;;;3.72;;
19560;SDS011;9927;47.792;10.616;2022-10-16T06:24:35;4.03;;;3.60;;
19560;SDS011;9927;47.792;10.616;2022-10-16T06:27:03;4.13;;;3.92;;
19560;SDS011;9927;47.792;10.616;2022-10-16T06:29:31;4.28;;;3.97;;
19560;SDS011;9927;47.792;10.616;2022-10-16T06:31:58;4.28;;;3.92;;
19560;SDS011;9927;47.792;10.616;2022-10-16T06:34:26;9.43;;;4.55;;
19560;SDS011;9927;47.792;10.616;2022-10-16T06:36:53;4.28;;;3.95;;
19560;SDS011;9927;47.792;10.616;2022-10-16T06:39:20;4.78;;;4.10;;
19560;SDS011;9927;47.792;10.616;2022-10-16T06:41:47;5.97;;;4.35;;
19560;SDS011;9927;47.792;10.616;2022-10-16T06:44:15;4.05;;;3.75;;
19560;SDS011;9927;47.792;10.616;2022-10-16T06:46:42;4.72;;;4.40;;
19560;SDS011;9927;47.792;10.616;2022-10-16T06:49:09;4.40;;;4.07;;
19560;SDS011;9927;47.792;10.616;2022-10-16T06:51:37;4.32;;;4.13;;
19560;SDS011;9927;47.792;10.616;2022-10-16T06:54:09;4.55;;;4.20;;
19560;SDS011;9927;47.792;10.616;2022-10-16T06:56:36;5.13;;;4.72;;
19560;SDS011;9927;47.792;10.616;2022-10-16T06:59:04;4.28;;;3.88;;
19560;SDS011;9927;47.792;10.616;2022-10-16T07:01:31;4.32;;;4.03;;
19560;SDS011;9927;47.792;10.616;2022-10-16T07:03:59;4.45;;;4.05;;
19560;SDS011;9927;47.792;10.616;2022-10-16T07:06:30;4.28;;;4.00;;
19560;SDS011;9927;47.792;10.616;2022-10-16T07:08:58;3.75;;;3.20;;
19560;SDS011;9927;47.792;10.616;2022-10-16T07:11:29;3.25;;;3.05;;
19560;SDS011;9927;47.792;10.616;2022-10-16T07:13:56;2.90;;;2.80;;
19560;SDS011;9927;47.792;10.616;2022-10-16T07:16:24;3.13;;;2.92;;
19560;SDS011;9927;47.792;10.616;2022-10-16T07:18:57;3.00;;;2.90;;
19560;SDS011;9927;47.792;10.616;2022-10-16T07:21:27;3.00;;;2.90;;
19560;SDS011;9927;47.792;10.616;2022-10-16T07:23:58;2.83;;;2.72;;
19560;SDS011;9927;47.792;10.616;2022-10-16T07:26:28;2.75;;;2.65;;
19560;SDS011;9927;47.792;10.616;2022-10-16T07:28:57;2.50;;;2.40;;
19560;SDS011;9927;47.792;10.616;2022-10-16T07:31:25;2.60;;;2.50;;
19560;SDS011;9927;47.792;10.616;2022-10-16T07:33:52;2.25;;;2.25;;
19560;SDS011;9927;47.792;10.616;2022-10-16T07:36:20;2.63;;;2.42;;
19560;SDS011;9927;47.792;10.616;2022-10-16T07:38:48;2.63;;;2.42;;
19560;SDS011;9927;47.792;10.616;2022-10-16T07:41:19;2.35;;;2.15;;
19560;SDS011;9927;47.792;10.616;2022-10-16T07:43:50;2.53;;;2.42;;
19560;SDS011;9927;47.792;10.616;2022-10-16T07:46:19;2.55;;;2.42;;
19560;SDS011;9927;47.792;10.616;2022-10-16T07:48:48;2.00;;;1.90;;
19560;SDS011;9927;47.792;10.616;2022-10-16T07:51:16;2.42;;;2.33;;
19560;SDS011;9927;47.792;10.616;2022-10-16T07:53:45;2.72;;;2.50;;
19560;SDS011;9927;47.792;10.616;2022-10-16T07:56:13;2.40;;;2.30;;
19560;SDS011;9927;47.792;10.616;2022-10-16T07:58:41;2.08;;;2.08;;
19560;SDS011;9927;47.792;10.616;2022-10-16T08:01:10;2.35;;;2.25;;
19560;SDS011;9927;47.792;10.616;2022-10-16T08:03:45;2.13;;;2.10;;
19560;SDS011;9927;47.792;10.616;2022-10-16T08:06:14;2.03;;;2.00;;
19560;SDS011;9927;47.792;10.616;2022-10-16T08:08:42;2.40;;;2.20;;
19560;SDS011;9927;47.792;10.616;2022-10-16T08:11:10;2.10;;;2.00;;
19560;SDS011;9927;47.792;10.616;2022-10-16T08:13:37;1.95;;;1.90;;
19560;SDS011;9927;47.792;10.616;2022-10-16T08:16:04;1.98;;;1.92;;
19560;SDS011;9927;47.792;10.616;2022-10-16T08:18:35;1.90;;;1.90;;
19560;SDS011;9927;47.792;10.616;2022-10-16T08:21:02;2.15;;;2.10;;
19560;SDS011;9927;47.792;10.616;2022-10-16T08:23:31;2.00;;;2.00;;
19560;SDS011;9927;47.792;10.616;2022-10-16T08:26:03;2.20;;;2.10;;
19560;SDS011;9927;47.792;10.616;2022-10-16T08:28:32;2.13;;;2.03;;
19560;SDS011;9927;47.792;10.616;2022-10-16T08:31:10;2.13;;;2.00;;
19560;SDS011;9927;47.792;10.616;2022-10-16T08:33:40;2.10;;;2.10;;
19560;SDS011;9927;47.792;10.616;2022-10-16T08:36:09;2.60;;;2.28;;
19560;SDS011;9927;47.792;10.616;2022-10-16T08:38:37;2.20;;;2.00;;
19560;SDS011;9927;47.792;10.616;2022-10-16T08:49:28;2.85;;;1.98;;
19560;SDS011;9927;47.792;10.616;2022-10-16T08:51:57;1.98;;;1.90;;
19560;SDS011;9927;47.792;10.616;2022-10-16T08:57:29;1.58;;;1.50;;
19560;SDS011;9927;47.792;10.616;2022-10-16T09:00:00;2.13;;;1.92;;
19560;SDS011;9927;47.792;10.616;2022-10-16T09:05:45;2.05;;;2.03;;
19560;SDS011;9927;47.792;10.616;2022-10-16T09:11:01;1.80;;;1.80;;
19560;SDS011;9927;47.792;10.616;2022-10-16T09:13:36;2.08;;;1.85;;
19560;SDS011;9927;47.792;10.616;2022-10-16T09:16:19;1.85;;;1.80;;
19560;SDS011;9927;47.792;10.616;2022-10-16T09:21:42;1.70;;;1.70;;
19560;SDS011;9927;47.792;10.616;2022-10-16T09:24:12;1.52;;;1.52;;
19560;SDS011;9927;47.792;10.616;2022-10-16T09:26:58;1.73;;;1.63;;
19560;SDS011;9927;47.792;10.616;2022-10-16T09:29:25;1.75;;;1.75;;
19560;SDS011;9927;47.792;10.616;2022-10-16T09:31:53;3.13;;;1.90;;
19560;SDS011;9927;47.792;10.616;2022-10-16T09:34:34;1.73;;;1.73;;
19560;SDS011;9927;47.792;10.616;2022-10-16T09:37:05;1.70;;;1.70;;
19560;SDS011;9927;47.792;10.616;2022-10-16T09:39:48;1.80;;;1.70;;
19560;SDS011;9927;47.792;10.616;2022-10-16T09:42:20;1.80;;;1.70;;
19560;SDS011;9927;47.792;10.616;2022-10-16T09:44:55;1.92;;;1.80;;
19560;SDS011;9927;47.792;10.616;2022-10-16T09:47:24;2.00;;;1.90;;
19560;SDS011;9927;47.792;10.616;2022-10-16T09:52:28;1.73;;;1.73;;
19560;SDS011;9927;47.792;10.616;2022-10-16T09:55:00;1.70;;;1.70;;
19560;SDS011;9927;47.792;10.616;2022-10-16T09:57:54;1.75;;;1.75;;
19560;SDS011;9927;47.792;10.616;2022-10-16T10:00:22;3.75;;;1.95;;
19560;SDS011;9927;47.792;10.616;2022-10-16T10:02:50;1.50;;;1.50;;
19560;SDS011;9927;47.792;10.616;2022-10-16T10:05:26;1.60;;;1.60;;
19560;SDS011;9927;47.792;10.616;2022-10-16T10:07:56;1.60;;;1.50;;
19560;SDS011;9927;47.792;10.616;2022-10-16T10:10:37;1.60;;;1.60;;
19560;SDS011;9927;47.792;10.616;2022-10-16T10:13:21;2.53;;;1.80;;
19560;SDS011;9927;47.792;10.616;2022-10-16T10:15:50;1.60;;;1.60;;
19560;SDS011;9927;47.792;10.616;2022-10-16T10:18:20;1.50;;;1.50;;
19560;SDS011;9927;47.792;10.616;2022-10-16T10:20:59;1.60;;;1.60;;
19560;SDS011;9927;47.792;10.616;2022-10-16T10:23:28;1.40;;;1.40;;
19560;SDS011;9927;47.792;10.616;2022-10-16T10:31:26;1.33;;;1.33;;
19560;SDS011;9927;47.792;10.616;2022-10-16T10:34:26;1.48;;;1.42;;
19560;SDS011;9927;47.792;10.616;2022-10-16T10:40:15;1.23;;;1.23;;
19560;SDS011;9927;47.792;10.616;2022-10-16T10:42:59;1.30;;;1.30;;
19560;SDS011;9927;47.792;10.616;2022-10-16T10:45:46;1.33;;;1.30;;
19560;SDS011;9927;47.792;10.616;2022-10-16T10:51:30;1.30;;;1.30;;
19560;SDS011;9927;47.792;10.616;2022-10-16T10:54:28;1.30;;;1.30;;
19560;SDS011;9927;47.792;10.616;2022-10-16T10:57:41;1.15;;;1.15;;
19560;SDS011;9927;47.792;10.616;2022-10-16T11:00:05;1.35;;;1.25;;
19560;SDS011;9927;47.792;10.616;2022-10-16T11:02:53;1.35;;;1.35;;
19560;SDS011;9927;47.792;10.616;2022-10-16T11:05:45;1.45;;;1.20;;
19560;SDS011;9927;47.792;10.616;2022-10-16T11:08:18;1.10;;;1.10;;
19560;SDS011;9927;47.792;10.616;2022-10-16T11:10:57;1.33;;;1.20;;
19560;SDS011;9927;47.792;10.616;2022-10-16T11:13:32;1.20;;;1.20;;
19560;SDS011;9927;47.792;10.616;2022-10-16T11:16:17;1.30;;;1.30;;
19560;SDS011;9927;47.792;10.616;2022-10-16T11:21:20;1.13;;;1.10;;
19560;SDS011;9927;47.792;10.616;2022-10-16T11:23:58;1.00;;;1.00;;
19560;SDS011;9927;47.792;10.616;2022-10-16T11:26:34;1.20;;;1.20;;
19560;SDS011;9927;47.792;10.616;2022-10-16T11:29:07;1.30;;;1.30;;
19560;SDS011;9927;47.792;10.616;2022-10-16T11:31:48;1.20;;;1.20;;
19560;SDS011;9927;47.792;10.616;2022-10-16T11:34:22;1.20;;;1.20;;
19560;SDS011;9927;47.792;10.616;2022-10-16T11:39:46;1.27;;;1.27;;
19560;SDS011;9927;47.792;10.616;2022-10-16T11:42:18;1.20;;;1.20;;
19560;SDS011;9927;47.792;10.616;2022-10-16T11:47:34;1.30;;;1.30;;
19560;SDS011;9927;47.792;10.616;2022-10-16T11:50:28;1.30;;;1.30;;
19560;SDS011;9927;47.792;10.616;2022-10-16T11:55:54;1.30;;;1.30;;
19560;SDS011;9927;47.792;10.616;2022-10-16T11:58:41;1.52;;;1.30;;
19560;SDS011;9927;47.792;10.616;2022-10-16T12:09:30;1.40;;;1.40;;
19560;SDS011;9927;47.792;10.616;2022-10-16T12:11:59;1.92;;;1.30;;
19560;SDS011;9927;47.792;10.616;2022-10-16T12:16:55;1.20;;;1.20;;
19560;SDS011;9927;47.792;10.616;2022-10-16T12:19:25;1.50;;;1.40;;
19560;SDS011;9927;47.792;10.616;2022-10-16T12:21:55;1.40;;;1.40;;
19560;SDS011;9927;47.792;10.616;2022-10-16T12:24:42;2.67;;;1.50;;
19560;SDS011;9927;47.792;10.616;2022-10-16T12:27:21;1.20;;;1.20;;
19560;SDS011;9927;47.792;10.616;2022-10-16T12:30:01;1.48;;;1.48;;
19560;SDS011;9927;47.792;10.616;2022-10-16T12:32:33;1.80;;;1.30;;
19560;SDS011;9927;47.792;10.616;2022-10-16T12:35:28;1.30;;;1.30;;
19560;SDS011;9927;47.792;10.616;2022-10-16T12:38:05;1.10;;;1.10;;
19560;SDS011;9927;47.792;10.616;2022-10-16T12:40:35;1.30;;;1.30;;
19560;SDS011;9927;47.792;10.616;2022-10-16T12:48:30;1.48;;;1.48;;
19560;SDS011;9927;47.792;10.616;2022-10-16T12:56:32;1.60;;;1.60;;
19560;SDS011;9927;47.792;10.616;2022-10-16T12:59:24;1.50;;;1.40;;
19560;SDS011;9927;47.792;10.616;2022-10-16T13:02:08;1.42;;;1.30;;
19560;SDS011;9927;47.792;10.616;2022-10-16T13:10:36;1.60;;;1.60;;
19560;SDS011;9927;47.792;10.616;2022-10-16T13:23:51;1.67;;;1.58;;
19560;SDS011;9927;47.792;10.616;2022-10-16T13:29:38;1.40;;;1.30;;
19560;SDS011;9927;47.792;10.616;2022-10-16T13:32:09;1.83;;;1.77;;
19560;SDS011;9927;47.792;10.616;2022-10-16T13:34:46;1.42;;;1.40;;
19560;SDS011;9927;47.792;10.616;2022-10-16T13:37:18;1.50;;;1.50;;
19560;SDS011;9927;47.792;10.616;2022-10-16T13:39:47;1.30;;;1.30;;
19560;SDS011;9927;47.792;10.616;2022-10-16T13:42:26;1.90;;;1.80;;
19560;SDS011;9927;47.792;10.616;2022-10-16T13:44:55;1.90;;;1.80;;
19560;SDS011;9927;47.792;10.616;2022-10-16T13:52:41;1.33;;;1.33;;
19560;SDS011;9927;47.792;10.616;2022-10-16T13:55:16;1.30;;;1.30;;
19560;SDS011;9927;47.792;10.616;2022-10-16T13:57:45;3.33;;;1.30;;
19560;SDS011;9927;47.792;10.616;2022-10-16T14:00:22;1.60;;;1.50;;
19560;SDS011;9927;47.792;10.616;2022-10-16T14:03:03;1.30;;;1.30;;
19560;SDS011;9927;47.792;10.616;2022-10-16T14:06:22;2.38;;;1.63;;
19560;SDS011;9927;47.792;10.616;2022-10-16T14:08:30;1.80;;;1.70;;
19560;SDS011;9927;47.792;10.616;2022-10-16T14:10:59;2.00;;;1.80;;
19560;SDS011;9927;47.792;10.616;2022-10-16T14:13:31;3.50;;;2.47;;
19560;SDS011;9927;47.792;10.616;2022-10-16T14:16:07;1.80;;;1.70;;
19560;SDS011;9927;47.792;10.616;2022-10-16T14:18:37;2.67;;;2.10;;
19560;SDS011;9927;47.792;10.616;2022-10-16T14:21:07;3.00;;;2.42;;
19560;SDS011;9927;47.792;10.616;2022-10-16T14:23:42;3.92;;;2.55;;
19560;SDS011;9927;47.792;10.616;2022-10-16T14:28:37;3.22;;;2.30;;
19560;SDS011;9927;47.792;10.616;2022-10-16T14:33:46;2.28;;;2.08;;
19560;SDS011;9927;47.792;10.616;2022-10-16T14:36:13;1.85;;;1.70;;
19560;SDS011;9927;47.792;10.616;2022-10-16T14:38:48;1.70;;;1.58;;
19560;SDS011;9927;47.792;10.616;2022-10-16T14:41:21;2.60;;;2.30;;
19560;SDS011;9927;47.792;10.616;2022-10-16T14:43:56;1.75;;;1.65;;
19560;SDS011;9927;47.792;10.616;2022-10-16T14:46:29;5.07;;;1.60;;
19560;SDS011;9927;47.792;10.616;2022-10-16T14:51:38;3.20;;;2.00;;
19560;SDS011;9927;47.792;10.616;2022-10-16T14:54:14;3.05;;;1.80;;
19560;SDS011;9927;47.792;10.616;2022-10-16T14:56:45;1.90;;;1.48;;
19560;SDS011;9927;47.792;10.616;2022-10-16T14:59:29;1.67;;;1.58;;
19560;SDS011;9927;47.792;10.616;2022-10-16T15:05:13;1.58;;;1.58;;
19560;SDS011;9927;47.792;10.616;2022-10-16T15:07:49;1.95;;;1.75;;
19560;SDS011;9927;47.792;10.616;2022-10-16T15:10:17;4.57;;;1.70;;
19560;SDS011;9927;47.792;10.616;2022-10-16T15:12:45;2.88;;;1.60;;
19560;SDS011;9927;47.792;10.616;2022-10-16T15:17:50;1.73;;;1.50;;
19560;SDS011;9927;47.792;10.616;2022-10-16T15:20:19;1.70;;;1.60;;
19560;SDS011;9927;47.792;10.616;2022-10-16T15:22:47;3.50;;;1.70;;
19560;SDS011;9927;47.792;10.616;2022-10-16T15:25:36;1.70;;;1.60;;
19560;SDS011;9927;47.792;10.616;2022-10-16T15:28:09;1.58;;;1.55;;
19560;SDS011;9927;47.792;10.616;2022-10-16T15:30:37;1.70;;;1.65;;
19560;SDS011;9927;47.792;10.616;2022-10-16T15:33:05;2.50;;;1.83;;
19560;SDS011;9927;47.792;10.616;2022-10-16T15:35:40;1.95;;;1.50;;
19560;SDS011;9927;47.792;10.616;2022-10-16T15:38:09;1.67;;;1.60;;
19560;SDS011;9927;47.792;10.616;2022-10-16T15:40:39;1.80;;;1.70;;
19560;SDS011;9927;47.792;10.616;2022-10-16T15:43:07;3.20;;;1.60;;
19560;SDS011;9927;47.792;10.616;2022-10-16T15:45:35;1.48;;;1.48;;
19560;SDS011;9927;47.792;10.616;2022-10-16T15:48:02;1.40;;;1.40;;
19560;SDS011;9927;47.792;10.616;2022-10-16T15:50:30;1.65;;;1.58;;
19560;SDS011;9927;47.792;10.616;2022-10-16T15:52:58;1.92;;;1.70;;
19560;SDS011;9927;47.792;10.616;2022-10-16T15:55:25;2.15;;;1.50;;
19560;SDS011;9927;47.792;10.616;2022-10-16T15:57:53;2.15;;;1.90;;
19560;SDS011;9927;47.792;10.616;2022-10-16T16:00:20;2.30;;;1.80;;
19560;SDS011;9927;47.792;10.616;2022-10-16T16:02:52;3.67;;;2.50;;
19560;SDS011;9927;47.792;10.616;2022-10-16T16:05:21;2.40;;;2.25;;
19560;SDS011;9927;47.792;10.616;2022-10-16T16:07:48;2.92;;;2.40;;
19560;SDS011;9927;47.792;10.616;2022-10-16T16:10:16;2.40;;;2.13;;
19560;SDS011;9927;47.792;10.616;2022-10-16T16:12:45;3.13;;;1.90;;
19560;SDS011;9927;47.792;10.616;2022-10-16T16:15:21;2.22;;;2.15;;
19560;SDS011;9927;47.792;10.616;2022-10-16T16:17:50;1.88;;;1.73;;
19560;SDS011;9927;47.792;10.616;2022-10-16T16:20:17;2.40;;;2.03;;
19560;SDS011;9927;47.792;10.616;2022-10-16T16:22:44;1.90;;;1.90;;
19560;SDS011;9927;47.792;10.616;2022-10-16T16:25:11;1.95;;;1.85;;
19560;SDS011;9927;47.792;10.616;2022-10-16T16:27:38;2.20;;;2.10;;
19560;SDS011;9927;47.792;10.616;2022-10-16T16:30:06;2.10;;;2.00;;
19560;SDS011;9927;47.792;10.616;2022-10-16T16:32:34;2.30;;;2.20;;
19560;SDS011;9927;47.792;10.616;2022-10-16T16:35:02;1.95;;;1.80;;
19560;SDS011;9927;47.792;10.616;2022-10-16T16:37:30;2.40;;;2.03;;
19560;SDS011;9927;47.792;10.616;2022-10-16T16:39:57;3.63;;;1.88;;
19560;SDS011;9927;47.792;10.616;2022-10-16T16:42:27;1.80;;;1.80;;
19560;SDS011;9927;47.792;10.616;2022-10-16T16:44:55;1.83;;;1.73;;
19560;SDS011;9927;47.792;10.616;2022-10-16T16:47:22;3.28;;;2.05;;
19560;SDS011;9927;47.792;10.616;2022-10-16T16:49:49;4.22;;;2.40;;
19560;SDS011;9927;47.792;10.616;2022-10-16T16:52:17;3.22;;;2.20;;
19560;SDS011;9927;47.792;10.616;2022-10-16T16:54:44;2.85;;;2.15;;
19560;SDS011;9927;47.792;10.616;2022-10-16T16:57:18;2.75;;;2.30;;
19560;SDS011;9927;47.792;10.616;2022-10-16T16:59:46;3.17;;;2.20;;
19560;SDS011;9927;47.792;10.616;2022-10-16T17:02:16;3.67;;;2.30;;
19560;SDS011;9927;47.792;10.616;2022-10-16T17:04:43;2.13;;;2.03;;
19560;SDS011;9927;47.792;10.616;2022-10-16T17:07:10;4.18;;;2.58;;
19560;SDS011;9927;47.792;10.616;2022-10-16T17:09:38;2.58;;;2.47;;
19560;SDS011;9927;47.792;10.616;2022-10-16T17:12:05;4.60;;;2.30;;
19560;SDS011;9927;47.792;10.616;2022-10-16T17:14:32;4.63;;;2.45;;
19560;SDS011;9927;47.792;10.616;2022-10-16T17:16:59;2.42;;;2.33;;
19560;SDS011;9927;47.792;10.616;2022-10-16T17:19:27;2.30;;;2.20;;
19560;SDS011;9927;47.792;10.616;2022-10-16T17:21:54;5.35;;;2.67;;
19560;SDS011;9927;47.792;10.616;2022-10-16T17:24:21;2.60;;;2.40;;
19560;SDS011;9927;47.792;10.616;2022-10-16T17:26:48;3.22;;;3.03;;
19560;SDS011;9927;47.792;10.616;2022-10-16T17:29:16;3.33;;;2.70;;
19560;SDS011;9927;47.792;10.616;2022-10-16T17:31:44;5.10;;;2.97;;
19560;SDS011;9927;47.792;10.616;2022-10-16T17:34:12;3.15;;;3.00;;
19560;SDS011;9927;47.792;10.616;2022-10-16T17:36:39;5.32;;;3.33;;
19560;SDS011;9927;47.792;10.616;2022-10-16T17:39:13;4.70;;;3.90;;
19560;SDS011;9927;47.792;10.616;2022-10-16T17:41:43;3.85;;;3.50;;
19560;SDS011;9927;47.792;10.616;2022-10-16T17:44:11;5.25;;;3.70;;
19560;SDS011;9927;47.792;10.616;2022-10-16T17:46:52;7.53;;;4.20;;
19560;SDS011;9927;47.792;10.616;2022-10-16T17:49:19;4.78;;;4.32;;
19560;SDS011;9927;47.792;10.616;2022-10-16T17:51:50;5.38;;;4.88;;
19560;SDS011;9927;47.792;10.616;2022-10-16T17:54:18;5.00;;;4.50;;
19560;SDS011;9927;47.792;10.616;2022-10-16T17:56:46;4.85;;;4.30;;
19560;SDS011;9927;47.792;10.616;2022-10-16T17:59:14;4.55;;;4.15;;
19560;SDS011;9927;47.792;10.616;2022-10-16T18:01:41;4.05;;;3.75;;
19560;SDS011;9927;47.792;10.616;2022-10-16T18:04:13;4.75;;;4.10;;
19560;SDS011;9927;47.792;10.616;2022-10-16T18:06:42;5.32;;;3.90;;
19560;SDS011;9927;47.792;10.616;2022-10-16T18:09:11;5.07;;;4.30;;
19560;SDS011;9927;47.792;10.616;2022-10-16T18:11:40;7.85;;;5.30;;
19560;SDS011;9927;47.792;10.616;2022-10-16T18:14:07;5.88;;;5.05;;
19560;SDS011;9927;47.792;10.616;2022-10-16T18:16:38;7.18;;;5.47;;
19560;SDS011;9927;47.792;10.616;2022-10-16T18:19:05;9.52;;;6.25;;
19560;SDS011;9927;47.792;10.616;2022-10-16T18:21:32;5.20;;;4.72;;
19560;SDS011;9927;47.792;10.616;2022-10-16T18:24:00;5.05;;;4.63;;
19560;SDS011;9927;47.792;10.616;2022-10-16T18:26:27;4.30;;;3.90;;
19560;SDS011;9927;47.792;10.616;2022-10-16T18:28:55;6.80;;;4.22;;
19560;SDS011;9927;47.792;10.616;2022-10-16T18:31:23;4.78;;;4.45;;
19560;SDS011;9927;47.792;10.616;2022-10-16T18:33:52;6.07;;;5.47;;
19560;SDS011;9927;47.792;10.616;2022-10-16T18:36:25;6.07;;;5.47;;
19560;SDS011;9927;47.792;10.616;2022-10-16T18:39:02;10.27;;;5.75;;
19560;SDS011;9927;47.792;10.616;2022-10-16T18:41:39;6.70;;;5.40;;
19560;SDS011;9927;47.792;10.616;2022-10-16T18:44:10;6.07;;;5.47;;
19560;SDS011;9927;47.792;10.616;2022-10-16T18:46:38;8.02;;;5.80;;
19560;SDS011;9927;47.792;10.616;2022-10-16T18:49:06;6.22;;;5.45;;
19560;SDS011;9927;47.792;10.616;2022-10-16T18:51:35;5.95;;;5.45;;
19560;SDS011;9927;47.792;10.616;2022-10-16T18:54:06;6.25;;;5.32;;
19560;SDS011;9927;47.792;10.616;2022-10-16T18:56:34;6.03;;;5.53;;
19560;SDS011;9927;47.792;10.616;2022-10-16T18:59:02;6.78;;;6.15;;
19560;SDS011;9927;47.792;10.616;2022-10-16T19:01:31;8.35;;;6.10;;
19560;SDS011;9927;47.792;10.616;2022-10-16T19:04:04;6.20;;;5.63;;
19560;SDS011;9927;47.792;10.616;2022-10-16T19:06:40;8.13;;;5.82;;
19560;SDS011;9927;47.792;10.616;2022-10-16T19:09:09;6.78;;;6.18;;
19560;SDS011;9927;47.792;10.616;2022-10-16T19:11:37;7.30;;;6.60;;
19560;SDS011;9927;47.792;10.616;2022-10-16T19:14:08;7.13;;;5.75;;
19560;SDS011;9927;47.792;10.616;2022-10-16T19:16:36;6.00;;;5.50;;
19560;SDS011;9927;47.792;10.616;2022-10-16T19:19:06;5.13;;;4.72;;
19560;SDS011;9927;47.792;10.616;2022-10-16T19:21:34;5.10;;;4.57;;
19560;SDS011;9927;47.792;10.616;2022-10-16T19:24:05;5.20;;;4.80;;
19560;SDS011;9927;47.792;10.616;2022-10-16T19:26:34;5.40;;;4.90;;
19560;SDS011;9927;47.792;10.616;2022-10-16T19:29:06;5.97;;;5.30;;
19560;SDS011;9927;47.792;10.616;2022-10-16T19:31:35;7.43;;;5.50;;
19560;SDS011;9927;47.792;10.616;2022-10-16T19:34:02;9.02;;;5.82;;
19560;SDS011;9927;47.792;10.616;2022-10-16T19:36:31;5.78;;;4.90;;
19560;SDS011;9927;47.792;10.616;2022-10-16T19:39:01;6.53;;;5.82;;
19560;SDS011;9927;47.792;10.616;2022-10-16T19:41:30;6.18;;;5.18;;
19560;SDS011;9927;47.792;10.616;2022-10-16T19:44:01;7.43;;;4.75;;
19560;SDS011;9927;47.792;10.616;2022-10-16T19:46:29;7.03;;;4.70;;
19560;SDS011;9927;47.792;10.616;2022-10-16T19:48:58;5.05;;;4.60;;
19560;SDS011;9927;47.792;10.616;2022-10-16T19:51:27;4.70;;;3.90;;
19560;SDS011;9927;47.792;10.616;2022-10-16T19:53:56;4.90;;;4.35;;
19560;SDS011;9927;47.792;10.616;2022-10-16T19:56:26;4.70;;;4.40;;